Portada
METAR-TAF:

METAR-TAF

Aeropuertos :

Aeropuerto de Pantelleria

Pantelaria, Italia

latitud: 36-49N, longitud: 011-58E, altitud: 191 m

Observación

El informe se hizo hace 1 hora y 15 minutos, a las 18:50 UTC
Viento 9 kt del sur-sureste
Temperatura 14°C
Humedad 38%
Presión 1021 hPa
Visibilidad 10 km o más
sin nubes por debajo de 1500 m y sin presencia de cumulonimbus.

METAR: LICG 211850Z 15009KT CAVOK 14/00 Q1021

Hora: 21:05 (20:05 UTC)

Pronóstico

El informe se hizo hace 3 horas y 5 minutos, a las 17:00 UTC
Pronóstico válido del 21 a las 18 UTC al 22 a las 03 UTC
Viento 12 kt del sur
Visibilidad 10 km o más
Escasas nubes a una altura de 4000 ft

TAF: LICG 211700Z 2118/2203 18012KT 9999 FEW040

Observaciones y pronósticos meteorológicos de más de 4000 aeropuertos (mensajes METAR y TAF).

Los puntos amarillos y rojos representan las estaciones disponibles.

Ponga el ratón en el punto deseado para ver el nombre de la estación.

Haga clic para ver las observaciones y los pronósticos meteorológicos.

Para cambiar el mapa : haga clic en los botones verdes con una cruz de color negro para hacer un zoom, en el botón verde con un guión para alejar o en las flechas verdes para mapas adyacentes.


METAR-TAF: